Overview Statistics Trail Chart Weather Telemetry Raw packets
 

This is the latest recevied weather packets stored in our database for station/object OM5ZU-10. If no packets are shown the sender has not sent any weather packets the latest 10 day(s).

<< 5 6 7 8 9 10 11 >>
Time Temp. Humidity Pressure Rain* Wind** Luminosity Snow
1788431855 29.44° C 38% 1018.7 hPa - - - -
1788430955 26.67° C 42% 1018.9 hPa - - - -
1788430055 28.33° C 39% 1019.1 hPa - - - -
1788429155 26.67° C 43% 1019.2 hPa - - - -
1788428255 26.67° C 42% 1019.4 hPa - - - -
1788427355 27.22° C 43% 1019.7 hPa - - - -
1788426454 26.67° C 43% 1019.8 hPa - - - -
1788425554 23.89° C 48% 1019.9 hPa - - - -
1788424654 24.44° C 48% 1020.1 hPa - - - -
1788423754 24.44° C 48% 1020.1 hPa - - - -
1788422854 23.89° C 50% 1020 hPa - - - -
1788421954 23.33° C 53% 1020 hPa - - - -
1788421053 24.44° C 49% 1019.9 hPa - - - -
1788420153 25° C 48% 1020 hPa - - - -
1788419253 25.56° C 48% 1020 hPa - - - -
1788418353 22.78° C 54% 1020.1 hPa - - - -
1788417453 23.33° C 52% 1020 hPa - - - -
1788416553 22.78° C 53% 1020 hPa - - - -
1788415652 22.22° C 55% 1020 hPa - - - -
1788414752 20.56° C 56% 1020.1 hPa - - - -
1788413852 20° C 60% 1020 hPa - - - -
1788412952 18.89° C 62% 1019.8 hPa - - - -
1788412052 17.22° C 68% 1019.8 hPa - - - -
1788411151 13.33° C 81% 1019.6 hPa - - - -
1788410251 12.22° C 85% 1019.5 hPa - - - -

* Rain since midnight (hover to see other rain measurements)
** Current wind speed in m/s (hover to see current wind gust speed)